sensor_id;sensor_type;location;lat;lon;timestamp;temperature;humidity
23703;DHT22;12030;50.376;8.762;2023-03-15T00:02:13;3.30;99.90
23703;DHT22;12030;50.376;8.762;2023-03-15T00:04:39;3.20;99.90
23703;DHT22;12030;50.376;8.762;2023-03-15T00:07:06;3.20;99.90
23703;DHT22;12030;50.376;8.762;2023-03-15T00:09:31;3.10;99.90
23703;DHT22;12030;50.376;8.762;2023-03-15T00:11:57;3.00;99.90
23703;DHT22;12030;50.376;8.762;2023-03-15T00:14:22;3.10;99.90
23703;DHT22;12030;50.376;8.762;2023-03-15T00:16:48;3.00;99.90
23703;DHT22;12030;50.376;8.762;2023-03-15T00:19:13;3.00;99.90
23703;DHT22;12030;50.376;8.762;2023-03-15T00:21:40;2.90;99.90
23703;DHT22;12030;50.376;8.762;2023-03-15T00:24:08;2.90;99.90
23703;DHT22;12030;50.376;8.762;2023-03-15T00:26:34;2.90;99.90
23703;DHT22;12030;50.376;8.762;2023-03-15T00:29:00;2.80;99.90
23703;DHT22;12030;50.376;8.762;2023-03-15T00:31:25;2.80;99.90
23703;DHT22;12030;50.376;8.762;2023-03-15T00:33:52;2.80;99.90
23703;DHT22;12030;50.376;8.762;2023-03-15T00:36:21;2.80;99.90
23703;DHT22;12030;50.376;8.762;2023-03-15T00:38:49;2.70;99.90
23703;DHT22;12030;50.376;8.762;2023-03-15T00:41:16;2.70;99.90
23703;DHT22;12030;50.376;8.762;2023-03-15T00:43:43;2.80;99.90
23703;DHT22;12030;50.376;8.762;2023-03-15T00:46:09;2.80;99.90
23703;DHT22;12030;50.376;8.762;2023-03-15T00:48:35;2.70;99.90
23703;DHT22;12030;50.376;8.762;2023-03-15T00:51:11;2.80;99.90
23703;DHT22;12030;50.376;8.762;2023-03-15T00:53:38;2.70;99.90
23703;DHT22;12030;50.376;8.762;2023-03-15T00:56:06;2.70;99.90
23703;DHT22;12030;50.376;8.762;2023-03-15T00:58:31;2.70;99.90
23703;DHT22;12030;50.376;8.762;2023-03-15T01:00:57;2.70;99.90
23703;DHT22;12030;50.376;8.762;2023-03-15T01:03:22;2.70;99.90
23703;DHT22;12030;50.376;8.762;2023-03-15T01:05:48;2.70;99.90
23703;DHT22;12030;50.376;8.762;2023-03-15T01:08:13;2.70;99.90
23703;DHT22;12030;50.376;8.762;2023-03-15T01:10:39;2.70;99.90
23703;DHT22;12030;50.376;8.762;2023-03-15T01:13:04;2.70;99.90
23703;DHT22;12030;50.376;8.762;2023-03-15T01:15:31;2.70;99.90
23703;DHT22;12030;50.376;8.762;2023-03-15T01:17:57;2.70;99.90
23703;DHT22;12030;50.376;8.762;2023-03-15T01:20:22;2.70;99.90
23703;DHT22;12030;50.376;8.762;2023-03-15T01:22:48;2.60;99.90
23703;DHT22;12030;50.376;8.762;2023-03-15T01:25:13;2.60;99.90
23703;DHT22;12030;50.376;8.762;2023-03-15T01:27:39;2.60;99.90
23703;DHT22;12030;50.376;8.762;2023-03-15T01:30:05;2.60;99.90
23703;DHT22;12030;50.376;8.762;2023-03-15T01:32:31;2.70;99.90
23703;DHT22;12030;50.376;8.762;2023-03-15T01:34:56;2.70;99.90
23703;DHT22;12030;50.376;8.762;2023-03-15T01:37:22;2.70;99.90
23703;DHT22;12030;50.376;8.762;2023-03-15T01:39:49;2.60;99.90
23703;DHT22;12030;50.376;8.762;2023-03-15T01:42:15;2.60;99.90
23703;DHT22;12030;50.376;8.762;2023-03-15T01:44:55;2.70;99.90
23703;DHT22;12030;50.376;8.762;2023-03-15T01:47:22;2.60;99.90
23703;DHT22;12030;50.376;8.762;2023-03-15T01:49:54;2.60;99.90
23703;DHT22;12030;50.376;8.762;2023-03-15T01:52:25;2.60;99.90
23703;DHT22;12030;50.376;8.762;2023-03-15T01:54:57;2.60;99.90
23703;DHT22;12030;50.376;8.762;2023-03-15T01:57:40;2.60;99.90
23703;DHT22;12030;50.376;8.762;2023-03-15T02:00:14;2.60;99.90
23703;DHT22;12030;50.376;8.762;2023-03-15T02:02:53;2.60;99.90
23703;DHT22;12030;50.376;8.762;2023-03-15T02:05:24;2.50;99.90
23703;DHT22;12030;50.376;8.762;2023-03-15T02:07:50;2.40;99.90
23703;DHT22;12030;50.376;8.762;2023-03-15T02:10:43;2.40;99.90
23703;DHT22;12030;50.376;8.762;2023-03-15T02:13:12;2.40;99.90
23703;DHT22;12030;50.376;8.762;2023-03-15T02:15:39;2.40;99.90
23703;DHT22;12030;50.376;8.762;2023-03-15T02:18:11;2.40;99.90
23703;DHT22;12030;50.376;8.762;2023-03-15T02:23:25;2.40;99.90
23703;DHT22;12030;50.376;8.762;2023-03-15T02:28:34;2.30;99.90
23703;DHT22;12030;50.376;8.762;2023-03-15T02:31:00;2.30;99.90
23703;DHT22;12030;50.376;8.762;2023-03-15T02:33:33;2.20;99.90
23703;DHT22;12030;50.376;8.762;2023-03-15T02:36:21;2.20;99.90
23703;DHT22;12030;50.376;8.762;2023-03-15T02:38:48;2.10;99.90
23703;DHT22;12030;50.376;8.762;2023-03-15T02:41:18;2.10;99.90
23703;DHT22;12030;50.376;8.762;2023-03-15T02:43:49;2.10;99.90
23703;DHT22;12030;50.376;8.762;2023-03-15T02:46:16;2.00;99.90
23703;DHT22;12030;50.376;8.762;2023-03-15T02:48:44;1.90;99.90
23703;DHT22;12030;50.376;8.762;2023-03-15T02:51:19;1.90;99.90
23703;DHT22;12030;50.376;8.762;2023-03-15T02:53:45;2.00;99.90
23703;DHT22;12030;50.376;8.762;2023-03-15T02:56:10;2.10;99.90
23703;DHT22;12030;50.376;8.762;2023-03-15T02:58:36;2.10;99.90
23703;DHT22;12030;50.376;8.762;2023-03-15T03:01:01;2.10;99.90
23703;DHT22;12030;50.376;8.762;2023-03-15T03:03:27;2.10;99.90
23703;DHT22;12030;50.376;8.762;2023-03-15T03:05:52;2.20;99.90
23703;DHT22;12030;50.376;8.762;2023-03-15T03:08:18;2.20;99.90
23703;DHT22;12030;50.376;8.762;2023-03-15T03:10:43;2.20;99.90
23703;DHT22;12030;50.376;8.762;2023-03-15T03:13:09;2.20;99.90
23703;DHT22;12030;50.376;8.762;2023-03-15T03:15:35;2.20;99.90
23703;DHT22;12030;50.376;8.762;2023-03-15T03:18:00;2.20;99.90
23703;DHT22;12030;50.376;8.762;2023-03-15T03:20:26;2.20;99.90
23703;DHT22;12030;50.376;8.762;2023-03-15T03:22:51;2.30;99.90
23703;DHT22;12030;50.376;8.762;2023-03-15T03:25:20;2.30;99.90
23703;DHT22;12030;50.376;8.762;2023-03-15T03:27:46;2.20;99.90
23703;DHT22;12030;50.376;8.762;2023-03-15T03:30:13;2.20;99.90
23703;DHT22;12030;50.376;8.762;2023-03-15T03:32:39;2.20;99.90
23703;DHT22;12030;50.376;8.762;2023-03-15T03:35:05;2.20;99.90
23703;DHT22;12030;50.376;8.762;2023-03-15T03:37:32;2.20;99.90
23703;DHT22;12030;50.376;8.762;2023-03-15T03:39:57;2.30;99.90
23703;DHT22;12030;50.376;8.762;2023-03-15T03:42:23;2.30;99.90
23703;DHT22;12030;50.376;8.762;2023-03-15T03:44:49;2.30;99.90
23703;DHT22;12030;50.376;8.762;2023-03-15T03:47:15;2.30;99.90
23703;DHT22;12030;50.376;8.762;2023-03-15T03:49:40;2.30;99.90
23703;DHT22;12030;50.376;8.762;2023-03-15T03:52:06;2.20;99.90
23703;DHT22;12030;50.376;8.762;2023-03-15T03:54:31;2.30;99.90
23703;DHT22;12030;50.376;8.762;2023-03-15T03:56:57;2.30;99.90
23703;DHT22;12030;50.376;8.762;2023-03-15T03:59:23;2.30;99.90
23703;DHT22;12030;50.376;8.762;2023-03-15T04:01:48;2.30;99.90
23703;DHT22;12030;50.376;8.762;2023-03-15T04:04:15;2.30;99.90
23703;DHT22;12030;50.376;8.762;2023-03-15T04:06:41;2.40;99.90
23703;DHT22;12030;50.376;8.762;2023-03-15T04:09:13;2.40;99.90
23703;DHT22;12030;50.376;8.762;2023-03-15T04:11:40;2.40;99.90
23703;DHT22;12030;50.376;8.762;2023-03-15T04:14:08;2.40;99.90
23703;DHT22;12030;50.376;8.762;2023-03-15T04:16:33;2.40;99.90
23703;DHT22;12030;50.376;8.762;2023-03-15T04:18:59;2.30;99.90
23703;DHT22;12030;50.376;8.762;2023-03-15T04:21:24;2.30;99.90
23703;DHT22;12030;50.376;8.762;2023-03-15T04:23:50;2.30;99.90
23703;DHT22;12030;50.376;8.762;2023-03-15T04:26:15;2.30;99.90
23703;DHT22;12030;50.376;8.762;2023-03-15T04:28:41;2.20;99.90
23703;DHT22;12030;50.376;8.762;2023-03-15T04:31:07;2.30;99.90
23703;DHT22;12030;50.376;8.762;2023-03-15T04:33:35;2.40;99.90
23703;DHT22;12030;50.376;8.762;2023-03-15T04:36:00;2.40;99.90
23703;DHT22;12030;50.376;8.762;2023-03-15T04:38:27;2.50;99.90
23703;DHT22;12030;50.376;8.762;2023-03-15T04:40:53;2.50;99.90
23703;DHT22;12030;50.376;8.762;2023-03-15T04:43:19;2.50;99.90
23703;DHT22;12030;50.376;8.762;2023-03-15T04:45:45;2.60;99.90
23703;DHT22;12030;50.376;8.762;2023-03-15T04:48:10;2.60;99.90
23703;DHT22;12030;50.376;8.762;2023-03-15T04:50:36;2.50;99.90
23703;DHT22;12030;50.376;8.762;2023-03-15T04:53:01;2.50;99.90
23703;DHT22;12030;50.376;8.762;2023-03-15T04:55:27;2.60;99.90
23703;DHT22;12030;50.376;8.762;2023-03-15T04:57:53;2.50;99.90
23703;DHT22;12030;50.376;8.762;2023-03-15T05:00:19;2.50;99.90
23703;DHT22;12030;50.376;8.762;2023-03-15T05:02:46;2.40;99.90
23703;DHT22;12030;50.376;8.762;2023-03-15T05:05:19;2.40;99.90
23703;DHT22;12030;50.376;8.762;2023-03-15T05:07:44;2.40;99.90
23703;DHT22;12030;50.376;8.762;2023-03-15T05:10:10;2.40;99.90
23703;DHT22;12030;50.376;8.762;2023-03-15T05:12:36;2.40;99.90
23703;DHT22;12030;50.376;8.762;2023-03-15T05:15:02;2.40;99.90
23703;DHT22;12030;50.376;8.762;2023-03-15T05:17:27;2.40;99.90
23703;DHT22;12030;50.376;8.762;2023-03-15T05:19:53;2.40;99.90
23703;DHT22;12030;50.376;8.762;2023-03-15T05:22:18;2.40;99.90
23703;DHT22;12030;50.376;8.762;2023-03-15T05:24:49;2.40;99.90
23703;DHT22;12030;50.376;8.762;2023-03-15T05:27:15;2.40;99.90
23703;DHT22;12030;50.376;8.762;2023-03-15T05:29:40;2.40;99.90
23703;DHT22;12030;50.376;8.762;2023-03-15T05:32:06;2.40;99.90
23703;DHT22;12030;50.376;8.762;2023-03-15T05:34:32;2.40;99.90
23703;DHT22;12030;50.376;8.762;2023-03-15T05:36:58;2.50;99.90
23703;DHT22;12030;50.376;8.762;2023-03-15T05:39:23;2.50;99.90
23703;DHT22;12030;50.376;8.762;2023-03-15T05:41:49;2.60;99.90
23703;DHT22;12030;50.376;8.762;2023-03-15T05:44:15;2.60;99.90
23703;DHT22;12030;50.376;8.762;2023-03-15T05:46:41;2.60;99.90
23703;DHT22;12030;50.376;8.762;2023-03-15T05:49:07;2.60;99.90
23703;DHT22;12030;50.376;8.762;2023-03-15T05:51:32;2.50;99.90
23703;DHT22;12030;50.376;8.762;2023-03-15T05:53:58;2.90;99.90
23703;DHT22;12030;50.376;8.762;2023-03-15T05:56:23;2.50;99.90
23703;DHT22;12030;50.376;8.762;2023-03-15T05:58:49;2.50;99.90
23703;DHT22;12030;50.376;8.762;2023-03-15T06:01:15;2.30;99.90
23703;DHT22;12030;50.376;8.762;2023-03-15T06:03:40;2.30;99.90
23703;DHT22;12030;50.376;8.762;2023-03-15T06:06:06;2.30;99.90
23703;DHT22;12030;50.376;8.762;2023-03-15T06:08:31;2.20;99.90
23703;DHT22;12030;50.376;8.762;2023-03-15T06:10:57;2.20;99.90
23703;DHT22;12030;50.376;8.762;2023-03-15T06:13:22;2.20;99.90
23703;DHT22;12030;50.376;8.762;2023-03-15T06:15:48;2.20;99.90
23703;DHT22;12030;50.376;8.762;2023-03-15T06:18:14;2.10;99.90
23703;DHT22;12030;50.376;8.762;2023-03-15T06:20:41;2.10;99.90
23703;DHT22;12030;50.376;8.762;2023-03-15T06:23:07;2.10;99.90
23703;DHT22;12030;50.376;8.762;2023-03-15T06:25:33;2.20;99.90
23703;DHT22;12030;50.376;8.762;2023-03-15T06:27:58;2.30;99.90
23703;DHT22;12030;50.376;8.762;2023-03-15T06:30:24;2.40;99.90
23703;DHT22;12030;50.376;8.762;2023-03-15T06:32:50;2.60;99.90
23703;DHT22;12030;50.376;8.762;2023-03-15T06:35:16;2.60;99.90
23703;DHT22;12030;50.376;8.762;2023-03-15T06:37:41;2.60;99.90
23703;DHT22;12030;50.376;8.762;2023-03-15T06:40:08;2.50;99.90
23703;DHT22;12030;50.376;8.762;2023-03-15T06:42:35;2.70;99.90
23703;DHT22;12030;50.376;8.762;2023-03-15T06:45:01;2.60;99.90
23703;DHT22;12030;50.376;8.762;2023-03-15T06:47:27;2.60;99.90
23703;DHT22;12030;50.376;8.762;2023-03-15T06:49:53;2.60;99.90
23703;DHT22;12030;50.376;8.762;2023-03-15T06:52:19;2.70;99.90
23703;DHT22;12030;50.376;8.762;2023-03-15T06:54:45;2.70;99.90
23703;DHT22;12030;50.376;8.762;2023-03-15T06:57:10;2.70;99.90
23703;DHT22;12030;50.376;8.762;2023-03-15T06:59:36;2.70;99.90
23703;DHT22;12030;50.376;8.762;2023-03-15T07:02:02;2.40;99.90
23703;DHT22;12030;50.376;8.762;2023-03-15T07:04:27;2.70;99.90
23703;DHT22;12030;50.376;8.762;2023-03-15T07:06:53;2.80;99.90
23703;DHT22;12030;50.376;8.762;2023-03-15T07:09:19;3.00;99.90
23703;DHT22;12030;50.376;8.762;2023-03-15T07:11:45;3.00;99.90
23703;DHT22;12030;50.376;8.762;2023-03-15T07:14:10;3.20;99.90
23703;DHT22;12030;50.376;8.762;2023-03-15T07:16:36;3.20;99.90
23703;DHT22;12030;50.376;8.762;2023-03-15T07:19:02;3.30;99.90
23703;DHT22;12030;50.376;8.762;2023-03-15T07:21:27;3.40;99.90
23703;DHT22;12030;50.376;8.762;2023-03-15T07:23:53;3.50;99.90
23703;DHT22;12030;50.376;8.762;2023-03-15T07:26:19;3.40;99.90
23703;DHT22;12030;50.376;8.762;2023-03-15T07:28:44;3.50;99.90
23703;DHT22;12030;50.376;8.762;2023-03-15T07:31:10;3.50;99.90
23703;DHT22;12030;50.376;8.762;2023-03-15T07:33:36;3.60;99.90
23703;DHT22;12030;50.376;8.762;2023-03-15T07:36:03;3.70;99.90
23703;DHT22;12030;50.376;8.762;2023-03-15T07:38:29;3.90;99.90
23703;DHT22;12030;50.376;8.762;2023-03-15T07:40:55;3.80;99.90
23703;DHT22;12030;50.376;8.762;2023-03-15T07:43:21;3.80;99.90
23703;DHT22;12030;50.376;8.762;2023-03-15T07:45:47;3.70;99.90
23703;DHT22;12030;50.376;8.762;2023-03-15T07:48:13;3.70;99.90
23703;DHT22;12030;50.376;8.762;2023-03-15T07:50:39;3.70;99.90
23703;DHT22;12030;50.376;8.762;2023-03-15T07:53:05;3.60;99.90
23703;DHT22;12030;50.376;8.762;2023-03-15T07:55:31;3.60;99.90
23703;DHT22;12030;50.376;8.762;2023-03-15T07:57:57;3.40;99.90
23703;DHT22;12030;50.376;8.762;2023-03-15T08:00:23;3.20;99.90
23703;DHT22;12030;50.376;8.762;2023-03-15T08:02:48;3.10;99.90
23703;DHT22;12030;50.376;8.762;2023-03-15T08:05:14;3.00;99.90
23703;DHT22;12030;50.376;8.762;2023-03-15T08:07:46;3.00;99.90
23703;DHT22;12030;50.376;8.762;2023-03-15T08:10:12;3.00;99.90
23703;DHT22;12030;50.376;8.762;2023-03-15T08:12:39;3.10;99.90
23703;DHT22;12030;50.376;8.762;2023-03-15T08:15:11;3.20;99.90
23703;DHT22;12030;50.376;8.762;2023-03-15T08:17:38;3.20;99.90
23703;DHT22;12030;50.376;8.762;2023-03-15T08:20:04;3.30;99.90
23703;DHT22;12030;50.376;8.762;2023-03-15T08:22:30;3.40;99.90
23703;DHT22;12030;50.376;8.762;2023-03-15T08:24:56;3.60;99.90
23703;DHT22;12030;50.376;8.762;2023-03-15T08:27:23;3.60;99.90
23703;DHT22;12030;50.376;8.762;2023-03-15T08:29:48;3.70;99.90
23703;DHT22;12030;50.376;8.762;2023-03-15T08:32:16;3.70;99.90
23703;DHT22;12030;50.376;8.762;2023-03-15T08:34:41;3.80;99.90
23703;DHT22;12030;50.376;8.762;2023-03-15T08:37:09;3.90;99.90
23703;DHT22;12030;50.376;8.762;2023-03-15T08:39:35;4.00;99.90
23703;DHT22;12030;50.376;8.762;2023-03-15T08:42:00;4.00;99.90
23703;DHT22;12030;50.376;8.762;2023-03-15T08:44:26;4.10;99.90
23703;DHT22;12030;50.376;8.762;2023-03-15T08:46:51;4.10;99.90
23703;DHT22;12030;50.376;8.762;2023-03-15T08:49:17;4.20;99.90
23703;DHT22;12030;50.376;8.762;2023-03-15T08:51:42;4.40;99.90
23703;DHT22;12030;50.376;8.762;2023-03-15T08:54:08;4.50;99.90
23703;DHT22;12030;50.376;8.762;2023-03-15T08:56:34;4.60;99.90
23703;DHT22;12030;50.376;8.762;2023-03-15T08:58:59;4.70;99.90
23703;DHT22;12030;50.376;8.762;2023-03-15T09:01:25;4.90;99.90
23703;DHT22;12030;50.376;8.762;2023-03-15T09:03:50;5.00;99.90
23703;DHT22;12030;50.376;8.762;2023-03-15T09:06:16;5.10;99.90
23703;DHT22;12030;50.376;8.762;2023-03-15T09:08:41;5.10;99.90
23703;DHT22;12030;50.376;8.762;2023-03-15T09:11:07;5.00;99.90
23703;DHT22;12030;50.376;8.762;2023-03-15T09:13:33;5.00;99.90
23703;DHT22;12030;50.376;8.762;2023-03-15T09:15:58;5.00;99.90
23703;DHT22;12030;50.376;8.762;2023-03-15T09:18:24;4.90;99.90
23703;DHT22;12030;50.376;8.762;2023-03-15T09:20:49;5.00;99.90
23703;DHT22;12030;50.376;8.762;2023-03-15T09:23:15;5.00;99.90
23703;DHT22;12030;50.376;8.762;2023-03-15T09:25:41;4.90;99.90
23703;DHT22;12030;50.376;8.762;2023-03-15T09:28:08;4.90;99.90
23703;DHT22;12030;50.376;8.762;2023-03-15T09:30:35;4.90;99.90
23703;DHT22;12030;50.376;8.762;2023-03-15T09:33:01;4.90;99.90
23703;DHT22;12030;50.376;8.762;2023-03-15T09:35:27;4.90;99.90
23703;DHT22;12030;50.376;8.762;2023-03-15T09:37:53;4.90;99.90
23703;DHT22;12030;50.376;8.762;2023-03-15T09:48:58;4.80;99.90
23703;DHT22;12030;50.376;8.762;2023-03-15T09:54:38;4.80;99.90
23703;DHT22;12030;50.376;8.762;2023-03-15T09:57:11;5.00;99.90
23703;DHT22;12030;50.376;8.762;2023-03-15T09:59:42;5.10;99.90
23703;DHT22;12030;50.376;8.762;2023-03-15T10:02:20;5.20;99.90
23703;DHT22;12030;50.376;8.762;2023-03-15T10:04:48;5.40;99.90
23703;DHT22;12030;50.376;8.762;2023-03-15T10:07:15;5.30;99.90
23703;DHT22;12030;50.376;8.762;2023-03-15T10:09:41;5.40;99.90
23703;DHT22;12030;50.376;8.762;2023-03-15T10:12:15;5.40;99.90
23703;DHT22;12030;50.376;8.762;2023-03-15T10:20:30;5.60;99.90
23703;DHT22;12030;50.376;8.762;2023-03-15T10:25:31;5.70;99.90
23703;DHT22;12030;50.376;8.762;2023-03-15T10:28:02;5.80;99.90
23703;DHT22;12030;50.376;8.762;2023-03-15T10:30:31;5.80;99.90
23703;DHT22;12030;50.376;8.762;2023-03-15T10:33:27;5.80;99.90
23703;DHT22;12030;50.376;8.762;2023-03-15T10:35:54;5.80;99.90
23703;DHT22;12030;50.376;8.762;2023-03-15T10:38:21;5.80;99.90
23703;DHT22;12030;50.376;8.762;2023-03-15T10:43:22;5.80;99.90
23703;DHT22;12030;50.376;8.762;2023-03-15T10:45:57;5.90;99.90
23703;DHT22;12030;50.376;8.762;2023-03-15T10:48:24;5.90;99.90
23703;DHT22;12030;50.376;8.762;2023-03-15T10:50:50;5.90;99.90
23703;DHT22;12030;50.376;8.762;2023-03-15T10:53:18;5.90;99.90
23703;DHT22;12030;50.376;8.762;2023-03-15T10:56:00;5.90;99.90
23703;DHT22;12030;50.376;8.762;2023-03-15T10:58:29;6.00;99.90
23703;DHT22;12030;50.376;8.762;2023-03-15T11:01:05;6.10;99.90
23703;DHT22;12030;50.376;8.762;2023-03-15T11:03:33;6.30;99.90
23703;DHT22;12030;50.376;8.762;2023-03-15T11:05:59;6.50;99.90
23703;DHT22;12030;50.376;8.762;2023-03-15T11:11:05;6.60;99.90
23703;DHT22;12030;50.376;8.762;2023-03-15T11:13:33;6.60;99.90
23703;DHT22;12030;50.376;8.762;2023-03-15T11:21:13;6.50;99.90
23703;DHT22;12030;50.376;8.762;2023-03-15T11:23:47;6.40;99.90
23703;DHT22;12030;50.376;8.762;2023-03-15T11:26:24;6.60;99.90
23703;DHT22;12030;50.376;8.762;2023-03-15T11:31:44;6.60;99.90
23703;DHT22;12030;50.376;8.762;2023-03-15T11:36:44;6.90;99.90
23703;DHT22;12030;50.376;8.762;2023-03-15T11:39:14;6.70;99.90
23703;DHT22;12030;50.376;8.762;2023-03-15T11:41:51;6.60;99.90
23703;DHT22;12030;50.376;8.762;2023-03-15T11:49:49;6.60;99.90
23703;DHT22;12030;50.376;8.762;2023-03-15T11:52:17;6.60;99.90
23703;DHT22;12030;50.376;8.762;2023-03-15T11:54:45;6.60;99.90
23703;DHT22;12030;50.376;8.762;2023-03-15T11:57:40;6.50;99.90
23703;DHT22;12030;50.376;8.762;2023-03-15T12:02:59;6.70;99.90
23703;DHT22;12030;50.376;8.762;2023-03-15T12:05:49;7.10;99.90
23703;DHT22;12030;50.376;8.762;2023-03-15T12:11:00;7.30;99.90
23703;DHT22;12030;50.376;8.762;2023-03-15T12:13:30;7.40;99.90
23703;DHT22;12030;50.376;8.762;2023-03-15T12:15:57;7.40;99.90
23703;DHT22;12030;50.376;8.762;2023-03-15T12:18:49;7.50;99.90
23703;DHT22;12030;50.376;8.762;2023-03-15T12:21:20;7.70;99.90
23703;DHT22;12030;50.376;8.762;2023-03-15T12:23:55;7.60;99.90
23703;DHT22;12030;50.376;8.762;2023-03-15T12:26:30;7.40;99.90
23703;DHT22;12030;50.376;8.762;2023-03-15T12:31:26;7.00;99.90
23703;DHT22;12030;50.376;8.762;2023-03-15T12:34:21;7.00;99.90
23703;DHT22;12030;50.376;8.762;2023-03-15T12:36:50;6.90;99.90
23703;DHT22;12030;50.376;8.762;2023-03-15T12:41:45;6.70;99.90
23703;DHT22;12030;50.376;8.762;2023-03-15T12:46:59;7.00;99.90
23703;DHT22;12030;50.376;8.762;2023-03-15T12:54:50;6.90;99.90
23703;DHT22;12030;50.376;8.762;2023-03-15T12:57:20;7.10;99.90
23703;DHT22;12030;50.376;8.762;2023-03-15T13:00:09;7.30;99.90
23703;DHT22;12030;50.376;8.762;2023-03-15T13:05:33;7.50;99.90
23703;DHT22;12030;50.376;8.762;2023-03-15T13:08:39;7.60;99.90
23703;DHT22;12030;50.376;8.762;2023-03-15T13:16:48;7.90;99.60
23703;DHT22;12030;50.376;8.762;2023-03-15T13:19:22;8.10;99.90
23703;DHT22;12030;50.376;8.762;2023-03-15T13:22:08;8.20;99.90
23703;DHT22;12030;50.376;8.762;2023-03-15T13:24:57;8.30;99.40
23703;DHT22;12030;50.376;8.762;2023-03-15T13:27:44;8.40;99.90
23703;DHT22;12030;50.376;8.762;2023-03-15T13:33:22;8.50;98.20
23703;DHT22;12030;50.376;8.762;2023-03-15T13:36:03;8.60;98.80
23703;DHT22;12030;50.376;8.762;2023-03-15T13:41:19;8.60;97.30
23703;DHT22;12030;50.376;8.762;2023-03-15T13:43:46;8.70;97.80
23703;DHT22;12030;50.376;8.762;2023-03-15T13:46:13;8.90;98.00
23703;DHT22;12030;50.376;8.762;2023-03-15T13:48:44;9.00;97.70
23703;DHT22;12030;50.376;8.762;2023-03-15T13:51:21;9.00;97.00
23703;DHT22;12030;50.376;8.762;2023-03-15T13:53:53;9.00;98.10
23703;DHT22;12030;50.376;8.762;2023-03-15T13:56:29;9.00;96.70
23703;DHT22;12030;50.376;8.762;2023-03-15T13:58:56;8.90;94.90
23703;DHT22;12030;50.376;8.762;2023-03-15T14:01:23;8.60;95.60
23703;DHT22;12030;50.376;8.762;2023-03-15T14:03:59;8.60;96.00
23703;DHT22;12030;50.376;8.762;2023-03-15T14:06:26;8.60;96.40
23703;DHT22;12030;50.376;8.762;2023-03-15T14:08:58;8.60;94.80
23703;DHT22;12030;50.376;8.762;2023-03-15T14:14:00;8.70;94.00
23703;DHT22;12030;50.376;8.762;2023-03-15T14:16:44;8.60;93.30
23703;DHT22;12030;50.376;8.762;2023-03-15T14:19:24;8.60;94.80
23703;DHT22;12030;50.376;8.762;2023-03-15T14:21:58;8.90;95.80
23703;DHT22;12030;50.376;8.762;2023-03-15T14:24:37;9.00;94.60
23703;DHT22;12030;50.376;8.762;2023-03-15T14:27:26;9.00;94.10
23703;DHT22;12030;50.376;8.762;2023-03-15T14:30:00;9.10;95.90
23703;DHT22;12030;50.376;8.762;2023-03-15T14:32:33;9.10;93.70
23703;DHT22;12030;50.376;8.762;2023-03-15T14:35:17;9.20;94.30
23703;DHT22;12030;50.376;8.762;2023-03-15T14:37:44;9.30;94.30
23703;DHT22;12030;50.376;8.762;2023-03-15T14:40:26;9.20;93.70
23703;DHT22;12030;50.376;8.762;2023-03-15T14:42:53;9.30;93.80
23703;DHT22;12030;50.376;8.762;2023-03-15T14:45:19;9.30;93.90
23703;DHT22;12030;50.376;8.762;2023-03-15T14:48:10;9.30;93.10
23703;DHT22;12030;50.376;8.762;2023-03-15T14:50:41;9.30;92.70
23703;DHT22;12030;50.376;8.762;2023-03-15T14:53:16;9.50;93.80
23703;DHT22;12030;50.376;8.762;2023-03-15T14:55:42;9.50;92.10
23703;DHT22;12030;50.376;8.762;2023-03-15T14:58:16;9.70;93.30
23703;DHT22;12030;50.376;8.762;2023-03-15T15:00:44;9.70;92.00
23703;DHT22;12030;50.376;8.762;2023-03-15T15:03:16;9.70;93.20
23703;DHT22;12030;50.376;8.762;2023-03-15T15:05:42;9.70;93.00
23703;DHT22;12030;50.376;8.762;2023-03-15T15:08:10;9.80;93.40
23703;DHT22;12030;50.376;8.762;2023-03-15T15:10:41;9.80;93.40
23703;DHT22;12030;50.376;8.762;2023-03-15T15:13:13;9.70;93.40
23703;DHT22;12030;50.376;8.762;2023-03-15T15:15:40;9.80;92.70
23703;DHT22;12030;50.376;8.762;2023-03-15T15:18:06;9.80;93.90
23703;DHT22;12030;50.376;8.762;2023-03-15T15:20:31;9.80;91.70
23703;DHT22;12030;50.376;8.762;2023-03-15T15:22:57;9.90;92.90
23703;DHT22;12030;50.376;8.762;2023-03-15T15:25:23;9.80;92.00
23703;DHT22;12030;50.376;8.762;2023-03-15T15:27:49;9.80;92.80
23703;DHT22;12030;50.376;8.762;2023-03-15T15:30:18;9.60;91.40
23703;DHT22;12030;50.376;8.762;2023-03-15T15:32:44;9.60;91.70
23703;DHT22;12030;50.376;8.762;2023-03-15T15:35:15;9.70;92.90
23703;DHT22;12030;50.376;8.762;2023-03-15T15:37:43;9.70;92.10
23703;DHT22;12030;50.376;8.762;2023-03-15T15:40:29;9.70;91.70
23703;DHT22;12030;50.376;8.762;2023-03-15T15:42:55;9.60;92.50
23703;DHT22;12030;50.376;8.762;2023-03-15T15:45:21;9.70;93.10
23703;DHT22;12030;50.376;8.762;2023-03-15T15:47:49;9.60;93.10
23703;DHT22;12030;50.376;8.762;2023-03-15T15:50:16;9.70;92.00
23703;DHT22;12030;50.376;8.762;2023-03-15T15:52:44;9.80;93.60
23703;DHT22;12030;50.376;8.762;2023-03-15T15:55:18;9.90;93.40
23703;DHT22;12030;50.376;8.762;2023-03-15T15:57:47;9.90;92.00
23703;DHT22;12030;50.376;8.762;2023-03-15T16:02:45;9.50;92.10
23703;DHT22;12030;50.376;8.762;2023-03-15T16:05:12;9.40;92.50
23703;DHT22;12030;50.376;8.762;2023-03-15T16:07:39;10.10;91.80
23703;DHT22;12030;50.376;8.762;2023-03-15T16:10:18;9.30;92.40
23703;DHT22;12030;50.376;8.762;2023-03-15T16:12:45;9.30;92.10
23703;DHT22;12030;50.376;8.762;2023-03-15T16:15:14;9.50;93.10
23703;DHT22;12030;50.376;8.762;2023-03-15T16:17:40;9.60;92.80
23703;DHT22;12030;50.376;8.762;2023-03-15T16:20:06;9.60;92.80
23703;DHT22;12030;50.376;8.762;2023-03-15T16:22:37;9.40;91.50
23703;DHT22;12030;50.376;8.762;2023-03-15T16:25:13;9.20;92.40
23703;DHT22;12030;50.376;8.762;2023-03-15T16:27:40;9.30;92.80
23703;DHT22;12030;50.376;8.762;2023-03-15T16:30:06;9.40;93.50
23703;DHT22;12030;50.376;8.762;2023-03-15T16:32:33;9.20;93.90
23703;DHT22;12030;50.376;8.762;2023-03-15T16:35:00;9.10;93.80
23703;DHT22;12030;50.376;8.762;2023-03-15T16:37:30;9.10;94.10
23703;DHT22;12030;50.376;8.762;2023-03-15T16:39:59;9.10;94.10
23703;DHT22;12030;50.376;8.762;2023-03-15T16:42:25;8.90;93.30
23703;DHT22;12030;50.376;8.762;2023-03-15T16:44:51;8.90;94.10
23703;DHT22;12030;50.376;8.762;2023-03-15T16:47:17;8.90;94.00
23703;DHT22;12030;50.376;8.762;2023-03-15T16:49:43;8.80;94.60
23703;DHT22;12030;50.376;8.762;2023-03-15T16:52:11;8.80;94.50
23703;DHT22;12030;50.376;8.762;2023-03-15T16:54:38;8.80;95.00
23703;DHT22;12030;50.376;8.762;2023-03-15T16:57:19;8.60;95.00
23703;DHT22;12030;50.376;8.762;2023-03-15T16:59:46;8.50;95.90
23703;DHT22;12030;50.376;8.762;2023-03-15T17:02:16;8.40;96.20
23703;DHT22;12030;50.376;8.762;2023-03-15T17:04:43;8.30;97.10
23703;DHT22;12030;50.376;8.762;2023-03-15T17:07:09;8.00;97.40
23703;DHT22;12030;50.376;8.762;2023-03-15T17:09:35;7.80;97.60
23703;DHT22;12030;50.376;8.762;2023-03-15T17:12:01;7.50;97.40
23703;DHT22;12030;50.376;8.762;2023-03-15T17:14:31;7.40;97.40
23703;DHT22;12030;50.376;8.762;2023-03-15T17:17:00;7.20;97.30
23703;DHT22;12030;50.376;8.762;2023-03-15T17:19:25;7.10;97.70